createdAt,value
2023-02-11T00:01:47.050Z,58.76
2023-02-11T00:04:49.571Z,59.69
2023-02-11T00:07:52.102Z,58.75
2023-02-11T00:10:56.122Z,58.68
2023-02-11T00:14:00.414Z,58.69
2023-02-11T00:17:02.748Z,58.35
2023-02-11T00:20:08.166Z,56.83
2023-02-11T00:23:10.860Z,57.87
2023-02-11T00:26:17.712Z,57.71
2023-02-11T00:29:20.666Z,57.92
2023-02-11T00:32:23.007Z,57.81
2023-02-11T00:35:26.020Z,58.69
2023-02-11T00:38:28.254Z,58.17
2023-02-11T00:41:31.164Z,58.38
2023-02-11T00:44:34.804Z,58.67
2023-02-11T00:47:37.109Z,58.93
2023-02-11T00:50:39.444Z,58.66
2023-02-11T00:53:41.665Z,58.69
2023-02-11T00:56:43.968Z,59.44
2023-02-11T00:59:46.293Z,59.05
2023-02-11T01:02:48.721Z,58.89
2023-02-11T01:05:51.371Z,59.33
2023-02-11T01:08:53.963Z,59.90
2023-02-11T01:11:56.324Z,59.81
2023-02-11T01:14:58.967Z,58.64
2023-02-11T01:18:01.555Z,58.35
2023-02-11T01:21:04.565Z,58.57
2023-02-11T01:24:07.106Z,57.54
2023-02-11T01:27:09.458Z,57.55
2023-02-11T01:30:13.908Z,56.52
2023-02-11T01:33:16.695Z,57.25
2023-02-11T01:36:19.077Z,57.84
2023-02-11T01:39:21.479Z,58.44
2023-02-11T01:42:24.372Z,59.13
2023-02-11T01:45:45.059Z,58.16
2023-02-11T01:48:57.781Z,57.91
2023-02-11T01:52:06.124Z,57.75
2023-02-11T01:55:37.602Z,59.16
2023-02-11T01:58:41.938Z,59.02
2023-02-11T02:01:47.988Z,59.02
2023-02-11T02:05:00.281Z,58.82
2023-02-11T02:08:15.228Z,59.02
2023-02-11T02:11:17.860Z,58.57
2023-02-11T02:14:20.434Z,59.01
2023-02-11T02:17:38.425Z,58.70
2023-02-11T02:21:19.252Z,58.67
2023-02-11T02:24:40.279Z,58.94
2023-02-11T02:28:01.339Z,59.10
2023-02-11T02:31:30.891Z,59.56
2023-02-11T02:34:44.301Z,60.66
2023-02-11T02:38:07.342Z,59.91
2023-02-11T02:41:12.264Z,59.57
2023-02-11T02:44:14.575Z,58.83
2023-02-11T02:47:16.965Z,59.23
2023-02-11T02:50:25.164Z,59.29
2023-02-11T02:53:35.028Z,59.37
2023-02-11T02:56:57.802Z,59.79
2023-02-11T03:00:14.940Z,59.89
2023-02-11T03:03:34.377Z,60.60
2023-02-11T03:06:42.569Z,60.81
2023-02-11T03:10:04.364Z,60.45
2023-02-11T03:13:07.843Z,59.78
2023-02-11T03:16:14.891Z,59.54
2023-02-11T03:19:34.162Z,59.31
2023-02-11T03:22:48.716Z,59.04
2023-02-11T03:25:57.015Z,59.52
2023-02-11T03:28:59.217Z,59.81
2023-02-11T03:32:12.420Z,59.86
2023-02-11T03:35:23.971Z,60.87
2023-02-11T03:38:36.450Z,60.34
2023-02-11T03:41:41.081Z,59.81
2023-02-11T03:44:52.024Z,60.01
2023-02-11T03:48:03.504Z,60.07
2023-02-11T03:51:08.350Z,59.83
2023-02-11T03:54:14.202Z,59.41
2023-02-11T03:57:16.715Z,59.49
2023-02-11T04:00:19.410Z,59.56
2023-02-11T04:03:21.856Z,59.99
2023-02-11T04:06:24.180Z,59.55
2023-02-11T04:09:26.503Z,59.86
2023-02-11T04:12:28.812Z,60.11
2023-02-11T04:15:31.140Z,60.65
2023-02-11T04:18:33.463Z,60.01
2023-02-11T04:21:35.784Z,59.78
2023-02-11T04:24:38.109Z,60.33
2023-02-11T04:27:40.498Z,60.55
2023-02-11T04:30:42.865Z,60.53
2023-02-11T04:33:45.274Z,59.11
2023-02-11T04:36:47.605Z,60.08
2023-02-11T04:39:49.898Z,59.82
2023-02-11T04:42:52.691Z,59.53
2023-02-11T04:45:58.975Z,59.47
2023-02-11T04:49:01.418Z,59.82
2023-02-11T04:52:03.746Z,60.16
2023-02-11T04:55:06.609Z,60.29
2023-02-11T04:58:08.943Z,59.42
2023-02-11T05:01:13.940Z,60.14
2023-02-11T05:04:16.803Z,59.78
2023-02-11T05:07:19.154Z,59.16
2023-02-11T05:10:21.483Z,59.56
2023-02-11T05:13:23.998Z,60.03
2023-02-11T05:16:26.242Z,61.34
2023-02-11T05:19:28.543Z,60.31
2023-02-11T05:22:30.877Z,60.74
2023-02-11T05:25:33.297Z,59.61
2023-02-11T05:28:35.866Z,60.08
2023-02-11T05:31:38.286Z,59.94
2023-02-11T05:34:40.599Z,60.03
2023-02-11T05:37:42.943Z,60.40
2023-02-11T05:40:45.241Z,60.56
2023-02-11T05:43:51.253Z,60.31
2023-02-11T05:46:53.583Z,60.61
2023-02-11T05:49:55.866Z,60.33
2023-02-11T05:52:58.112Z,60.46
2023-02-11T05:56:00.952Z,60.95
2023-02-11T05:59:03.368Z,61.15
2023-02-11T06:02:05.743Z,61.17
2023-02-11T06:05:08.502Z,61.32
2023-02-11T06:08:11.164Z,60.62
2023-02-11T06:11:15.935Z,61.03
2023-02-11T06:14:18.271Z,61.46
2023-02-11T06:17:20.602Z,61.06
2023-02-11T06:20:22.994Z,61.14
2023-02-11T06:23:25.485Z,60.19
2023-02-11T06:26:27.818Z,60.60
2023-02-11T06:29:30.117Z,59.34
2023-02-11T06:32:49.376Z,59.24
2023-02-11T06:35:52.151Z,59.29
2023-02-11T06:38:56.535Z,59.23
2023-02-11T06:41:59.078Z,59.53
2023-02-11T06:45:01.592Z,59.42
2023-02-11T06:48:04.263Z,58.71
2023-02-11T06:51:09.662Z,58.82
2023-02-11T06:54:12.651Z,59.12
2023-02-11T06:57:16.217Z,58.37
2023-02-11T07:00:19.580Z,57.51
2023-02-11T07:03:22.287Z,57.29
2023-02-11T07:06:28.102Z,57.43
2023-02-11T07:09:32.959Z,57.66
2023-02-11T07:12:35.271Z,57.33
2023-02-11T07:15:38.355Z,56.61
2023-02-11T07:18:41.452Z,57.16
2023-02-11T07:21:43.751Z,57.04
2023-02-11T07:24:46.409Z,56.93
2023-02-11T07:27:50.268Z,56.46
2023-02-11T07:30:52.634Z,56.08
2023-02-11T07:33:58.276Z,56.00
2023-02-11T07:37:00.603Z,53.68
2023-02-11T07:40:03.324Z,52.13
2023-02-11T07:43:05.657Z,52.34
2023-02-11T07:46:11.474Z,50.33
2023-02-11T07:49:15.821Z,51.27
2023-02-11T07:52:18.736Z,50.32
2023-02-11T07:55:21.669Z,51.64
2023-02-11T07:58:23.968Z,51.13
2023-02-11T08:01:29.676Z,51.09
2023-02-11T08:04:32.172Z,51.76
2023-02-11T08:07:34.576Z,50.07
2023-02-11T08:10:37.248Z,50.53
2023-02-11T08:13:40.042Z,51.86
2023-02-11T08:16:42.487Z,53.26
2023-02-11T08:19:44.987Z,52.55
2023-02-11T08:22:47.508Z,51.54
2023-02-11T08:25:51.015Z,51.46
2023-02-11T08:28:54.884Z,52.20
2023-02-11T08:31:57.250Z,52.78
2023-02-11T08:34:59.631Z,52.53
2023-02-11T08:38:01.936Z,52.36
2023-02-11T08:41:04.887Z,52.69
2023-02-11T08:44:08.239Z,53.69
2023-02-11T08:47:10.669Z,52.87
2023-02-11T08:50:12.929Z,52.70
2023-02-11T08:53:15.254Z,52.93
2023-02-11T08:56:19.524Z,52.35
2023-02-11T08:59:21.928Z,53.62
2023-02-11T09:02:24.394Z,51.80
2023-02-11T09:05:27.679Z,50.33
2023-02-11T09:08:29.945Z,49.39
2023-02-11T09:11:35.069Z,49.16
2023-02-11T09:14:38.460Z,48.31
2023-02-11T09:17:40.993Z,48.78
2023-02-11T09:20:43.414Z,48.14
2023-02-11T09:23:48.001Z,46.50
2023-02-11T09:26:50.463Z,46.72
2023-02-11T09:29:53.262Z,45.73
2023-02-11T09:32:56.772Z,45.87
2023-02-11T09:36:03.242Z,43.77
2023-02-11T09:39:07.840Z,45.09
2023-02-11T09:42:13.614Z,43.65
2023-02-11T09:45:21.819Z,44.16
2023-02-11T09:48:24.357Z,43.38
2023-02-11T09:51:40.167Z,41.41
2023-02-11T09:54:57.680Z,41.05
2023-02-11T09:58:04.415Z,40.38
2023-02-11T10:01:13.281Z,39.27
2023-02-11T10:04:40.345Z,39.29
2023-02-11T10:08:14.622Z,39.48
2023-02-11T10:11:32.655Z,41.17
2023-02-11T10:14:48.494Z,40.58
2023-02-11T10:18:15.393Z,40.78
2023-02-11T10:21:36.701Z,40.43
2023-02-11T10:24:39.333Z,41.17
2023-02-11T10:27:42.994Z,41.39
2023-02-11T10:31:01.209Z,40.09
2023-02-11T10:34:11.248Z,41.35
2023-02-11T10:37:14.111Z,40.62
2023-02-11T10:40:25.555Z,39.83
2023-02-11T10:43:30.110Z,39.78
2023-02-11T10:46:34.240Z,39.75
2023-02-11T10:49:42.231Z,39.54
2023-02-11T10:52:44.663Z,39.65
2023-02-11T10:55:55.748Z,39.67
2023-02-11T10:59:22.155Z,39.43
2023-02-11T11:02:35.661Z,38.40
2023-02-11T11:05:53.282Z,37.34
2023-02-11T11:08:56.180Z,37.30
2023-02-11T11:11:58.673Z,38.90
2023-02-11T11:15:23.526Z,40.47
2023-02-11T11:18:25.814Z,39.33
2023-02-11T11:21:43.442Z,40.13
2023-02-11T11:24:46.878Z,39.92
2023-02-11T11:27:53.852Z,40.13
2023-02-11T11:30:57.268Z,40.39
2023-02-11T11:34:01.588Z,40.78
2023-02-11T11:37:22.467Z,41.71
2023-02-11T11:40:27.526Z,41.40
2023-02-11T11:43:29.777Z,39.68
2023-02-11T11:46:38.450Z,39.11
2023-02-11T11:49:59.585Z,38.39
2023-02-11T11:53:07.897Z,37.62
2023-02-11T11:56:25.354Z,37.84
2023-02-11T11:59:28.068Z,37.60
2023-02-11T12:03:19.428Z,37.59
2023-02-11T12:06:36.508Z,37.37
2023-02-11T12:09:49.508Z,38.10
2023-02-11T12:13:08.150Z,37.77
2023-02-11T12:16:25.711Z,37.52
2023-02-11T12:20:12.911Z,37.11
2023-02-11T12:23:40.212Z,37.92
2023-02-11T12:26:48.006Z,37.62
2023-02-11T12:30:11.982Z,38.24
2023-02-11T12:33:36.255Z,37.90
2023-02-11T12:36:45.226Z,34.99
2023-02-11T12:40:10.415Z,35.17
2023-02-11T12:43:21.404Z,35.10
2023-02-11T12:46:39.199Z,34.05
2023-02-11T12:49:45.587Z,34.92
2023-02-11T12:52:53.899Z,34.62
2023-02-11T12:56:00.969Z,34.86
2023-02-11T12:59:05.677Z,34.00
2023-02-11T13:02:43.928Z,33.80
2023-02-11T13:05:53.036Z,33.68
2023-02-11T13:09:00.854Z,34.25
2023-02-11T13:12:23.171Z,33.91
2023-02-11T13:15:26.223Z,33.70
2023-02-11T13:18:40.579Z,33.94
2023-02-11T13:22:12.187Z,33.22
2023-02-11T13:25:36.208Z,33.71
2023-02-11T13:28:44.589Z,32.96
2023-02-11T13:31:57.305Z,33.04
2023-02-11T13:34:59.820Z,33.18
2023-02-11T13:38:13.230Z,33.16
2023-02-11T13:41:18.470Z,33.33
2023-02-11T13:44:24.278Z,32.75
2023-02-11T13:47:34.126Z,32.81
2023-02-11T13:50:39.622Z,32.60
2023-02-11T13:53:54.997Z,32.77
2023-02-11T13:57:22.373Z,33.39
2023-02-11T14:00:33.680Z,33.55
2023-02-11T14:03:56.527Z,33.16
2023-02-11T14:07:42.550Z,33.58
2023-02-11T14:10:44.775Z,33.33
2023-02-11T14:13:47.033Z,33.69
2023-02-11T14:17:19.054Z,33.99
2023-02-11T14:20:37.524Z,34.48
2023-02-11T14:23:40.892Z,34.26
2023-02-11T14:26:59.449Z,33.67
2023-02-11T14:30:20.971Z,34.73
2023-02-11T14:33:38.539Z,35.46
2023-02-11T14:36:53.166Z,35.35
2023-02-11T14:40:01.101Z,35.22
2023-02-11T14:43:25.925Z,35.19
2023-02-11T14:46:33.106Z,35.87
2023-02-11T14:49:38.790Z,35.16
2023-02-11T14:52:42.456Z,36.06
2023-02-11T14:55:48.385Z,35.59
2023-02-11T14:58:54.301Z,35.48
2023-02-11T15:01:56.850Z,35.73
2023-02-11T15:05:16.701Z,35.71
2023-02-11T15:08:19.493Z,36.02
2023-02-11T15:11:24.236Z,37.17
2023-02-11T15:14:29.085Z,36.22
2023-02-11T15:17:32.888Z,36.66
2023-02-11T15:20:36.059Z,36.89
2023-02-11T15:23:40.659Z,36.75
2023-02-11T15:26:43.012Z,36.91
2023-02-11T15:29:51.225Z,36.93
2023-02-11T15:32:58.175Z,37.66
2023-02-11T15:36:00.856Z,36.97
2023-02-11T15:39:32.829Z,38.47
2023-02-11T15:42:50.608Z,37.76
2023-02-11T15:46:00.987Z,37.88
2023-02-11T15:49:03.359Z,38.03
2023-02-11T15:52:08.323Z,37.63
2023-02-11T15:55:14.333Z,38.29
2023-02-11T15:58:16.739Z,37.93
2023-02-11T16:01:19.179Z,39.02
2023-02-11T16:04:24.980Z,38.07
2023-02-11T16:07:37.787Z,38.35
2023-02-11T16:10:40.510Z,39.43
2023-02-11T16:13:47.286Z,39.27
2023-02-11T16:16:52.199Z,39.71
2023-02-11T16:19:54.850Z,39.46
2023-02-11T16:22:57.208Z,39.44
2023-02-11T16:26:05.586Z,39.84
2023-02-11T16:29:13.993Z,39.59
2023-02-11T16:32:35.026Z,39.56
2023-02-11T16:35:37.698Z,39.20
2023-02-11T16:38:40.764Z,40.06
2023-02-11T16:41:43.323Z,39.96
2023-02-11T16:44:45.597Z,40.01
2023-02-11T16:47:47.902Z,39.51
2023-02-11T16:50:53.298Z,39.93
2023-02-11T16:53:55.912Z,40.51
2023-02-11T16:56:58.701Z,39.95
2023-02-11T17:00:01.151Z,39.72
2023-02-11T17:03:07.317Z,39.75
2023-02-11T17:06:11.169Z,40.33
2023-02-11T17:09:26.279Z,40.15
2023-02-11T17:12:30.024Z,40.25
2023-02-11T17:15:32.582Z,40.56
2023-02-11T17:18:35.998Z,40.63
2023-02-11T17:21:39.015Z,40.99
2023-02-11T17:24:41.427Z,41.70
2023-02-11T17:27:44.126Z,42.15
2023-02-11T17:30:46.543Z,41.01
2023-02-11T17:33:48.935Z,41.61
2023-02-11T17:36:51.897Z,41.95
2023-02-11T17:39:54.243Z,41.74
2023-02-11T17:42:56.579Z,41.50
2023-02-11T17:45:59.288Z,41.03
2023-02-11T17:49:02.674Z,42.54
2023-02-11T17:52:05.420Z,41.13
2023-02-11T17:55:08.021Z,41.07
2023-02-11T17:58:10.366Z,41.70
2023-02-11T18:01:12.741Z,41.14
2023-02-11T18:04:18.957Z,41.19
2023-02-11T18:07:21.383Z,42.54
2023-02-11T18:10:23.762Z,40.43
2023-02-11T18:13:26.887Z,40.90
2023-02-11T18:16:30.535Z,41.60
2023-02-11T18:19:35.260Z,41.43
2023-02-11T18:22:40.275Z,42.34
2023-02-11T18:25:42.694Z,41.67
2023-02-11T18:28:46.068Z,41.82
2023-02-11T18:31:48.757Z,42.10
2023-02-11T18:34:51.104Z,42.02
2023-02-11T18:37:53.621Z,42.61
2023-02-11T18:40:57.633Z,42.98
2023-02-11T18:44:03.372Z,42.57
2023-02-11T18:47:05.943Z,42.70
2023-02-11T18:50:10.016Z,43.12
2023-02-11T18:53:13.496Z,42.55
2023-02-11T18:56:18.739Z,43.23
2023-02-11T18:59:21.201Z,44.29
2023-02-11T19:02:24.999Z,43.11
2023-02-11T19:05:28.864Z,43.94
2023-02-11T19:08:31.199Z,42.91
2023-02-11T19:11:52.368Z,43.59
2023-02-11T19:14:54.733Z,45.44
2023-02-11T19:17:57.181Z,43.77
2023-02-11T19:20:59.641Z,44.63
2023-02-11T19:24:07.481Z,44.63
2023-02-11T19:27:10.015Z,44.34
2023-02-11T19:30:12.605Z,45.01
2023-02-11T19:33:14.880Z,45.03
2023-02-11T19:36:18.628Z,45.66
2023-02-11T19:39:21.095Z,46.08
2023-02-11T19:42:25.827Z,45.77
2023-02-11T19:45:29.468Z,45.16
2023-02-11T19:48:32.005Z,45.79
2023-02-11T19:51:35.747Z,45.61
2023-02-11T19:54:38.337Z,44.69
2023-02-11T19:57:40.775Z,45.22
2023-02-11T20:00:43.579Z,45.33
2023-02-11T20:03:52.384Z,44.65
2023-02-11T20:06:54.769Z,44.50
2023-02-11T20:09:57.134Z,45.25
2023-02-11T20:12:59.490Z,45.24
2023-02-11T20:16:12.456Z,45.97
2023-02-11T20:19:18.346Z,45.43
2023-02-11T20:22:20.810Z,45.87
2023-02-11T20:25:23.247Z,46.34
2023-02-11T20:28:26.013Z,46.81
2023-02-11T20:31:29.920Z,47.07
2023-02-11T20:34:32.735Z,46.81
2023-02-11T20:37:35.157Z,47.37
2023-02-11T20:40:38.530Z,48.78
2023-02-11T20:43:42.125Z,48.99
2023-02-11T20:46:49.038Z,49.08
2023-02-11T20:49:51.572Z,49.04
2023-02-11T20:52:53.834Z,49.02
2023-02-11T20:55:56.398Z,49.47
2023-02-11T20:59:00.046Z,49.26
2023-02-11T21:02:02.488Z,49.99
2023-02-11T21:05:05.187Z,49.98
2023-02-11T21:08:07.475Z,50.78
2023-02-11T21:11:09.950Z,51.04
2023-02-11T21:14:12.915Z,51.77
2023-02-11T21:17:15.383Z,52.79
2023-02-11T21:20:17.890Z,53.69
2023-02-11T21:23:20.295Z,54.06
2023-02-11T21:26:22.762Z,53.49
2023-02-11T21:29:25.080Z,54.33
2023-02-11T21:32:27.518Z,54.46
2023-02-11T21:35:35.099Z,53.75
2023-02-11T21:38:37.439Z,53.28
2023-02-11T21:41:40.443Z,53.23
2023-02-11T21:44:42.807Z,53.72
2023-02-11T21:47:45.097Z,54.66
2023-02-11T21:50:47.782Z,54.34
2023-02-11T21:53:54.898Z,55.41
2023-02-11T21:56:57.429Z,55.17
2023-02-11T21:59:59.808Z,55.48
2023-02-11T22:03:02.135Z,55.29
2023-02-11T22:06:12.659Z,55.66
2023-02-11T22:09:15.016Z,55.58
2023-02-11T22:12:17.341Z,54.79
2023-02-11T22:15:20.036Z,55.81
2023-02-11T22:18:22.369Z,56.28
2023-02-11T22:21:25.139Z,55.09
2023-02-11T22:24:27.848Z,56.22
2023-02-11T22:27:30.226Z,56.05
2023-02-11T22:30:32.533Z,56.35
2023-02-11T22:33:34.851Z,56.80
2023-02-11T22:36:39.501Z,57.09
2023-02-11T22:39:42.774Z,57.05
2023-02-11T22:42:45.098Z,57.92
2023-02-11T22:45:48.268Z,58.67
2023-02-11T22:48:50.903Z,58.03
2023-02-11T22:51:53.189Z,58.54
2023-02-11T22:54:55.495Z,58.89
2023-02-11T22:57:57.788Z,58.97
2023-02-11T23:01:00.155Z,58.44
2023-02-11T23:04:05.121Z,58.97
2023-02-11T23:07:07.424Z,57.91
2023-02-11T23:10:10.494Z,59.68
2023-02-11T23:13:12.831Z,59.33
2023-02-11T23:16:20.998Z,59.32
2023-02-11T23:19:23.913Z,58.99
2023-02-11T23:22:26.190Z,58.86
2023-02-11T23:25:28.598Z,59.69
2023-02-11T23:28:31.050Z,59.92
2023-02-11T23:31:37.961Z,59.84
2023-02-11T23:34:40.414Z,59.16
2023-02-11T23:37:42.732Z,60.42
2023-02-11T23:40:45.085Z,60.21
2023-02-11T23:43:52.054Z,60.74
2023-02-11T23:46:54.376Z,61.02
2023-02-11T23:49:59.388Z,60.68
2023-02-11T23:53:02.043Z,60.90
2023-02-11T23:56:14.019Z,61.09
2023-02-11T23:59:17.190Z,60.45
